CA-0566 weather

Triple Island Lightstation Helipad
Triple Islands, British Columbia, Canada

Public forecast

Using degrees Celsius for public forecast. Weather courtesy of forecast.io.

Closest aviation weather report (METAR) to Triple Island Lightstation Helipad

Closest report is Prince Rupert Airport, 15.3 nm (28.3 km) E. Retrieved 2020/08/03 11:33 UTC (19 minutes ago):

CYPR 031133Z AUTO VRB02KT 5SM -RA BR OVC036 14/14 A2996 RMK SLP149

Closest aviation forecast (TAF) to Triple Island Lightstation Helipad

Closest forecast is Prince Rupert Airport, 15.3 nm (28.3 km) E. Retrieved 2020/08/03 07:42 UTC (4 hours ago):

TAF CYPR 030638Z 0307/0319 VRB03KT P6SM SCT002 SCT012 OVC025 TEMPO 0307/0319 1SM -SHRA BR BKN002 OVC005 BECMG 0309/0311 16008KT RMK FCST BASED ON AUTO OBS NXT FCST BY 031300Z